Time;durP1;ratioP1;P1;durP2;ratioP2;P2;SDS_P1;SDS_P2;PMS_P1;PMS_P2;Temp;Humidity;BMP_temperature;BMP_pressure;BME280_temperature;BME280_humidity;BME280_pressure;Samples;Min_cycle;Max_cycle;Signal;HPM_P1;HPM_P2
2023/10/26 00:01:16;;;;;;;17.17;12.02;;;;;;;12.31;83.61;99577.25;7390974;19;20528;-69
2023/10/26 00:03:44;;;;;;;14.77;11.80;;;;;;;12.30;83.92;99574.78;7390594;19;20026;-69
2023/10/26 00:06:11;;;;;;;14.98;11.32;;;;;;;12.28;83.88;99577.56;7392081;19;20019;-67
2023/10/26 00:08:39;;;;;;;15.77;12.73;;;;;;;12.30;83.90;99580.09;7389550;19;20047;-63
2023/10/26 00:11:07;;;;;;;17.80;12.75;;;;;;;12.32;83.88;99570.13;7389050;19;20026;-66
2023/10/26 00:13:34;;;;;;;16.67;12.68;;;;;;;12.33;83.71;99585.09;7391510;19;20040;-66
2023/10/26 00:16:03;;;;;;;14.68;12.20;;;;;;;12.32;83.65;99581.56;7391221;19;20421;-65
2023/10/26 00:18:30;;;;;;;17.63;12.63;;;;;;;12.31;83.46;99576.44;7391754;19;20015;-67
2023/10/26 00:21:00;;;;;;;15.63;12.77;;;;;;;12.27;83.99;99573.25;7391156;19;20050;-66
2023/10/26 00:23:28;;;;;;;16.15;12.77;;;;;;;12.25;83.92;99577.91;7390948;19;20031;-66
2023/10/26 00:25:55;;;;;;;14.77;12.75;;;;;;;12.25;83.88;99577.03;7391782;19;20018;-68
2023/10/26 00:28:23;;;;;;;16.20;13.20;;;;;;;12.27;83.84;99578.56;7390613;19;20046;-65
2023/10/26 00:30:50;;;;;;;16.90;13.00;;;;;;;12.25;83.79;99575.25;7387251;19;20018;-63
2023/10/26 00:33:18;;;;;;;16.55;13.68;;;;;;;12.25;84.11;99575.25;7389832;19;20029;-63
2023/10/26 00:35:46;;;;;;;17.50;13.00;;;;;;;12.20;83.95;99578.31;7388861;19;20034;-63
2023/10/26 00:38:14;;;;;;;17.48;13.10;;;;;;;12.25;83.92;99582.34;7394691;19;20082;-63
2023/10/26 00:40:41;;;;;;;16.65;13.13;;;;;;;12.26;83.90;99584.88;7396137;19;20051;-62
2023/10/26 00:43:19;;;;;;;18.40;13.50;;;;;;;12.26;83.95;99578.72;7396143;19;20035;-62
2023/10/26 00:45:50;;;;;;;15.30;12.57;;;;;;;12.17;84.15;99577.78;7397029;19;20018;-62
2023/10/26 00:48:19;;;;;;;17.20;13.43;;;;;;;12.16;84.20;99582.28;7397801;19;20480;-63
2023/10/26 00:50:50;;;;;;;16.17;13.73;;;;;;;12.17;83.87;99583.09;7394183;19;20014;-63
2023/10/26 00:53:19;;;;;;;16.73;13.13;;;;;;;12.19;83.76;99581.97;7396627;19;20014;-63
2023/10/26 00:55:51;;;;;;;15.88;12.95;;;;;;;12.19;83.81;99574.00;7398128;19;20018;-62
2023/10/26 00:58:21;;;;;;;19.52;13.27;;;;;;;12.16;84.11;99571.66;7397200;19;20022;-62
2023/10/26 01:00:49;;;;;;;19.27;13.45;;;;;;;12.17;83.84;99575.13;7397193;19;20507;-68
2023/10/26 01:03:17;;;;;;;17.08;13.00;;;;;;;12.15;83.81;99583.28;7396718;19;20022;-65
2023/10/26 01:05:45;;;;;;;15.80;13.40;;;;;;;12.18;83.60;99571.53;7397880;19;20026;-64
2023/10/26 01:08:12;;;;;;;17.63;12.70;;;;;;;12.21;83.40;99576.53;7395431;19;20023;-65
2023/10/26 01:10:40;;;;;;;18.88;13.63;;;;;;;12.19;83.74;99584.63;7394102;19;20023;-67
2023/10/26 01:13:08;;;;;;;16.92;13.30;;;;;;;12.13;83.67;99577.28;7397467;19;20450;-66
2023/10/26 01:15:36;;;;;;;18.00;13.43;;;;;;;12.11;83.95;99575.78;7397687;19;20026;-66
2023/10/26 01:18:03;;;;;;;17.30;13.32;;;;;;;12.10;84.02;99576.75;7397513;19;20027;-66
2023/10/26 01:20:32;;;;;;;17.60;13.43;;;;;;;12.11;84.06;99583.72;7394782;19;20019;-66
2023/10/26 01:22:59;;;;;;;15.95;13.43;;;;;;;12.10;83.86;99588.22;7397294;19;20014;-66
2023/10/26 01:25:27;;;;;;;15.60;13.15;;;;;;;12.06;84.17;99580.72;7397774;19;20015;-66
2023/10/26 01:27:54;;;;;;;16.15;13.35;;;;;;;12.08;84.22;99578.72;7396616;19;20376;-66
2023/10/26 01:30:22;;;;;;;16.08;13.23;;;;;;;12.08;84.16;99576.06;7393092;19;20424;-66
2023/10/26 01:32:49;;;;;;;17.23;13.00;;;;;;;12.12;83.91;99580.09;7397317;19;20086;-66
2023/10/26 01:35:17;;;;;;;17.60;13.57;;;;;;;12.07;84.13;99577.88;7397146;19;20039;-66
2023/10/26 01:37:45;;;;;;;17.60;13.55;;;;;;;12.09;84.16;99581.22;7394964;19;20035;-66
2023/10/26 01:40:12;;;;;;;16.38;13.50;;;;;;;12.12;84.15;99575.59;7394480;19;20022;-66
2023/10/26 01:42:40;;;;;;;17.95;14.18;;;;;;;12.14;84.07;99584.25;7396501;19;20494;-66
2023/10/26 01:45:08;;;;;;;17.20;14.07;;;;;;;12.12;83.87;99577.44;7397014;19;20078;-66
2023/10/26 01:47:36;;;;;;;20.95;15.38;;;;;;;12.15;83.88;99575.31;7395492;19;20019;-66
2023/10/26 01:50:04;;;;;;;17.50;14.55;;;;;;;12.14;83.68;99581.59;7390984;19;20018;-67
2023/10/26 01:52:31;;;;;;;19.23;13.88;;;;;;;12.14;84.08;99586.09;7396106;19;20035;-66
2023/10/26 01:54:59;;;;;;;18.08;14.50;;;;;;;12.16;84.06;99581.44;7395977;19;20015;-66
2023/10/26 01:57:27;;;;;;;17.77;14.50;;;;;;;12.13;84.21;99581.75;7396856;19;20243;-66
2023/10/26 01:59:56;;;;;;;19.70;15.07;;;;;;;12.14;83.90;99583.44;7392682;19;20094;-66
2023/10/26 02:02:23;;;;;;;18.52;14.98;;;;;;;12.10;84.17;99582.06;7396200;19;20094;-66
2023/10/26 02:04:51;;;;;;;19.35;15.23;;;;;;;12.09;84.11;99578.56;7396295;19;20086;-68
2023/10/26 02:07:18;;;;;;;17.85;15.00;;;;;;;12.11;84.03;99581.06;7396056;19;20027;-65
2023/10/26 02:09:46;;;;;;;16.92;14.20;;;;;;;12.10;83.82;99582.06;7390862;19;20018;-65
2023/10/26 02:12:14;;;;;;;17.77;14.50;;;;;;;12.08;83.87;99582.19;7395915;19;20023;-66
2023/10/26 02:14:41;;;;;;;16.88;13.93;;;;;;;12.10;83.57;99582.06;7395323;19;20011;-66
2023/10/26 02:17:09;;;;;;;18.95;14.63;;;;;;;12.09;83.42;99583.03;7395308;19;20011;-67
2023/10/26 02:19:37;;;;;;;16.98;14.20;;;;;;;12.05;83.65;99579.00;7392534;19;20018;-66
2023/10/26 02:22:05;;;;;;;17.25;14.45;;;;;;;12.06;83.84;99586.00;7395829;19;20483;-66
2023/10/26 02:24:33;;;;;;;20.90;14.70;;;;;;;12.03;83.67;99583.66;7393557;19;20019;-66
2023/10/26 02:27:00;;;;;;;17.20;13.98;;;;;;;12.00;83.73;99586.59;7394050;19;20381;-66
2023/10/26 02:29:28;;;;;;;16.88;14.27;;;;;;;11.97;84.04;99589.56;7390575;19;20019;-66
2023/10/26 02:31:56;;;;;;;17.58;13.80;;;;;;;11.99;83.80;99590.25;7395657;19;20018;-67
2023/10/26 02:34:23;;;;;;;18.83;14.15;;;;;;;12.01;83.63;99590.91;7394984;19;20019;-66
2023/10/26 02:36:51;;;;;;;18.33;14.68;;;;;;;12.04;83.34;99601.25;7395068;19;20019;-63
2023/10/26 02:39:18;;;;;;;17.42;14.55;;;;;;;12.06;83.10;99604.59;7392543;19;20018;-63
2023/10/26 02:41:46;;;;;;;19.35;14.65;;;;;;;12.00;83.73;99608.66;7394363;19;20015;-64
2023/10/26 02:44:14;;;;;;;17.33;14.48;;;;;;;11.98;83.72;99615.09;7394941;19;20046;-63
2023/10/26 02:46:41;;;;;;;18.40;14.45;;;;;;;11.96;83.87;99620.56;7394512;19;20090;-63
2023/10/26 02:49:09;;;;;;;18.10;14.38;;;;;;;11.92;83.78;99613.88;7393622;19;20015;-65
2023/10/26 02:51:36;;;;;;;17.80;14.02;;;;;;;11.91;83.76;99618.38;7393253;19;20010;-62
2023/10/26 02:54:04;;;;;;;18.40;14.40;;;;;;;11.90;83.46;99624.63;7394340;19;20011;-62
2023/10/26 02:56:32;;;;;;;19.48;14.57;;;;;;;11.91;83.77;99614.88;7394689;19;20491;-62
2023/10/26 02:58:59;;;;;;;19.02;14.55;;;;;;;11.92;83.47;99613.88;7392875;19;20030;-62
2023/10/26 03:01:34;;;;;;;18.40;14.82;;;;;;;12.02;83.38;99619.13;7390405;19;20022;-62
2023/10/26 03:04:02;;;;;;;19.05;14.27;;;;;;;11.97;83.14;99622.22;7393645;19;20018;-62
2023/10/26 03:06:40;;;;;;;18.10;14.52;;;;;;;11.95;83.44;99625.03;7392277;19;20014;-63
2023/10/26 03:09:10;;;;;;;18.08;14.02;;;;;;;11.85;83.83;99620.78;7392086;19;20014;-63
2023/10/26 03:11:38;;;;;;;16.45;13.60;;;;;;;11.85;83.65;99615.47;7392284;19;20611;-63
2023/10/26 03:14:05;;;;;;;18.58;14.38;;;;;;;11.84;83.26;99621.75;7394068;19;20015;-63
2023/10/26 03:16:33;;;;;;;19.65;13.82;;;;;;;11.86;83.52;99625.09;7393367;19;20018;-64
2023/10/26 03:19:00;;;;;;;17.63;13.65;;;;;;;11.85;83.39;99624.25;7390536;19;20018;-64
2023/10/26 03:21:28;;;;;;;17.38;13.32;;;;;;;11.85;83.62;99629.56;7392500;19;20019;-64
2023/10/26 03:23:56;;;;;;;19.88;13.90;;;;;;;11.88;83.20;99626.63;7393363;19;20018;-64
2023/10/26 03:26:23;;;;;;;17.45;13.57;;;;;;;11.87;83.11;99629.44;7393344;19;20029;-64
2023/10/26 03:28:52;;;;;;;16.45;13.20;;;;;;;11.88;83.22;99623.97;7392361;19;20029;-64
2023/10/26 03:31:19;;;;;;;18.10;13.75;;;;;;;11.83;83.24;99628.91;7390716;19;20022;-64
2023/10/26 03:33:47;;;;;;;19.75;14.05;;;;;;;11.78;83.45;99617.00;7392832;19;20030;-65
2023/10/26 03:36:16;;;;;;;17.38;13.30;;;;;;;11.78;83.56;99622.31;7393152;19;20018;-64
2023/10/26 03:38:45;;;;;;;18.65;13.77;;;;;;;11.77;83.57;99624.13;7392271;19;20028;-68
2023/10/26 03:41:13;;;;;;;17.90;14.07;;;;;;;11.78;83.25;99633.75;7391492;19;20018;-68
2023/10/26 03:43:41;;;;;;;17.60;13.30;;;;;;;11.76;83.45;99627.78;7392913;19;20045;-68
2023/10/26 03:46:08;;;;;;;17.23;12.85;;;;;;;11.77;83.53;99626.78;7392828;19;20017;-68
2023/10/26 03:48:36;;;;;;;19.13;13.95;;;;;;;11.75;83.26;99626.09;7392100;19;20022;-68
2023/10/26 03:51:04;;;;;;;17.00;13.65;;;;;;;11.77;83.55;99628.63;7389992;19;20035;-68
2023/10/26 03:53:32;;;;;;;16.67;13.20;;;;;;;11.76;83.60;99627.78;7392575;19;20014;-69
2023/10/26 03:56:01;;;;;;;18.10;13.75;;;;;;;11.78;83.22;99630.28;7392225;19;20019;-69
2023/10/26 03:58:29;;;;;;;17.58;13.75;;;;;;;11.76;83.50;99627.78;7391257;19;20082;-69
2023/10/26 04:00:57;;;;;;;17.67;13.57;;;;;;;11.78;83.17;99638.22;7390666;19;20014;-70
2023/10/26 04:03:25;;;;;;;17.40;13.50;;;;;;;11.74;82.86;99637.69;7390348;19;20015;-70
2023/10/26 04:05:53;;;;;;;17.08;13.48;;;;;;;11.75;82.85;99626.09;7391745;19;20032;-69
2023/10/26 04:08:21;;;;;;;17.75;13.27;;;;;;;11.73;83.07;99632.53;7391493;19;20078;-69
2023/10/26 04:10:49;;;;;;;20.25;13.90;;;;;;;11.71;83.21;99636.19;7389124;19;20027;-69
2023/10/26 04:13:17;;;;;;;19.23;14.18;;;;;;;11.71;82.86;99633.53;7391185;19;20022;-69
2023/10/26 04:15:44;;;;;;;18.33;14.07;;;;;;;11.71;82.92;99633.53;7391662;19;20396;-70
2023/10/26 04:18:12;;;;;;;18.23;14.20;;;;;;;11.73;82.59;99638.69;7391436;19;20014;-70
2023/10/26 04:20:39;;;;;;;18.38;13.85;;;;;;;11.73;82.61;99640.50;7390601;19;20015;-70
2023/10/26 04:23:07;;;;;;;19.83;14.40;;;;;;;11.68;82.80;99640.94;7391584;19;20024;-68
2023/10/26 04:25:34;;;;;;;19.23;13.75;;;;;;;11.70;82.64;99638.97;7390859;19;20018;-69
2023/10/26 04:28:20;;;;;;;20.27;14.00;;;;;;;11.68;82.70;99644.44;7390710;19;20355;-67
2023/10/26 04:30:48;;;;;;;18.40;13.70;;;;;;;11.66;82.65;99637.59;7389214;19;20010;-66
2023/10/26 04:33:16;;;;;;;17.90;13.93;;;;;;;11.68;82.66;99633.00;7391535;19;20014;-68
2023/10/26 04:35:46;;;;;;;19.90;14.20;;;;;;;11.68;82.44;99643.59;7391544;19;20018;-67
2023/10/26 04:38:14;;;;;;;17.55;13.70;;;;;;;11.65;82.43;99639.41;7390977;19;20081;-67
2023/10/26 04:40:42;;;;;;;17.45;13.70;;;;;;;11.62;82.86;99631.75;7389622;19;20094;-68
2023/10/26 04:43:10;;;;;;;19.20;14.18;;;;;;;11.61;82.96;99647.81;7389509;19;20022;-68
2023/10/26 04:45:38;;;;;;;18.85;14.02;;;;;;;11.65;82.67;99649.19;7390854;19;20014;-68
2023/10/26 04:48:05;;;;;;;19.00;13.57;;;;;;;11.66;82.33;99653.50;7390185;19;20094;-67
2023/10/26 04:50:33;;;;;;;17.00;12.65;;;;;;;11.65;82.54;99651.84;7389231;19;20086;-67
2023/10/26 04:53:02;;;;;;;18.92;13.73;;;;;;;11.67;82.61;99652.53;7390915;19;20017;-67
2023/10/26 04:55:33;;;;;;;17.85;13.82;;;;;;;11.70;82.12;99646.94;7390917;19;20039;-68
2023/10/26 04:58:02;;;;;;;19.80;13.65;;;;;;;11.68;82.33;99647.09;7390331;19;20356;-68
2023/10/26 05:00:30;;;;;;;18.30;14.18;;;;;;;11.70;82.16;99646.94;7389940;19;20023;-68
2023/10/26 05:02:58;;;;;;;17.17;13.48;;;;;;;11.68;81.94;99654.22;7390824;19;20027;-66
2023/10/26 05:05:26;;;;;;;18.45;13.20;;;;;;;11.62;82.03;99652.13;7390923;19;20242;-67
2023/10/26 05:07:54;;;;;;;16.77;13.18;;;;;;;11.62;82.37;99652.97;7390291;19;20029;-67
2023/10/26 05:10:21;;;;;;;17.33;13.30;;;;;;;11.58;82.18;99651.59;7388670;19;20035;-67
2023/10/26 05:12:49;;;;;;;17.60;13.48;;;;;;;11.57;82.37;99654.41;7390123;19;20029;-67
2023/10/26 05:15:18;;;;;;;17.38;13.02;;;;;;;11.53;82.12;99650.38;7389561;19;20015;-67
2023/10/26 05:17:46;;;;;;;18.08;13.18;;;;;;;11.54;82.12;99639.63;7385369;19;20014;-67
2023/10/26 05:20:14;;;;;;;18.42;14.07;;;;;;;11.56;81.99;99648.28;7389052;19;20028;-67
2023/10/26 05:22:41;;;;;;;17.55;13.23;;;;;;;11.55;82.13;99643.09;7389059;19;20049;-67
2023/10/26 05:25:11;;;;;;;18.05;14.07;;;;;;;11.55;82.00;99641.28;7397113;19;20106;-67
2023/10/26 05:27:39;;;;;;;18.83;13.50;;;;;;;11.49;82.23;99639.22;7397966;19;20024;-67
2023/10/26 05:30:07;;;;;;;19.02;14.20;;;;;;;11.58;81.92;99642.81;7393948;19;20014;-67
2023/10/26 05:32:35;;;;;;;18.63;12.70;;;;;;;11.53;82.12;99647.72;7391893;19;20018;-67
2023/10/26 05:35:03;;;;;;;17.50;13.07;;;;;;;11.51;82.05;99649.69;7397180;19;20094;-67
2023/10/26 05:37:31;;;;;;;17.98;12.75;;;;;;;11.53;82.03;99648.56;7396918;19;20458;-67
2023/10/26 05:39:59;;;;;;;16.23;12.50;;;;;;;11.57;82.00;99644.63;7393136;19;20022;-67
2023/10/26 05:42:26;;;;;;;19.73;13.00;;;;;;;11.57;81.97;99646.44;7396654;19;20026;-67
2023/10/26 05:44:56;;;;;;;18.58;12.75;;;;;;;11.55;82.12;99653.69;7397830;19;20018;-67
2023/10/26 05:47:24;;;;;;;17.05;13.05;;;;;;;11.52;81.95;99649.50;7396072;19;20052;-67
2023/10/26 05:49:51;;;;;;;17.08;12.45;;;;;;;11.52;82.16;99657.47;7392912;19;20010;-67
2023/10/26 05:52:19;;;;;;;16.77;12.77;;;;;;;11.53;82.01;99655.69;7393779;19;20014;-67
2023/10/26 05:54:47;;;;;;;17.85;12.57;;;;;;;11.54;82.00;99652.03;7394740;19;20086;-67
2023/10/26 05:57:14;;;;;;;18.33;13.02;;;;;;;11.50;81.85;99648.84;7393665;19;20356;-67
2023/10/26 05:59:42;;;;;;;16.55;12.43;;;;;;;11.52;81.97;99646.03;7392764;19;20019;-67
2023/10/26 06:02:10;;;;;;;16.30;12.95;;;;;;;11.53;81.85;99648.56;7396371;19;20025;-67
2023/10/26 06:04:37;;;;;;;16.83;12.38;;;;;;;11.60;81.57;99659.38;7395560;19;20022;-67
2023/10/26 06:07:05;;;;;;;17.70;12.98;;;;;;;11.60;81.69;99657.59;7396183;19;20025;-67
2023/10/26 06:09:32;;;;;;;17.88;12.20;;;;;;;11.57;82.00;99665.00;7392728;19;20037;-67
2023/10/26 06:12:00;;;;;;;16.40;12.57;;;;;;;11.59;81.94;99669.16;7394087;19;20014;-68
2023/10/26 06:14:28;;;;;;;16.63;12.38;;;;;;;11.55;81.91;99673.09;7395246;19;20022;-69
2023/10/26 06:16:56;;;;;;;18.25;12.57;;;;;;;11.59;81.67;99671.81;7395571;19;20043;-69
2023/10/26 06:19:23;;;;;;;16.67;12.68;;;;;;;11.57;81.84;99668.50;7392195;19;20094;-69
2023/10/26 06:21:51;;;;;;;16.67;12.38;;;;;;;11.59;81.67;99663.88;7393381;19;20022;-69
2023/10/26 06:24:18;;;;;;;18.10;12.20;;;;;;;11.61;81.47;99667.22;7395580;19;20035;-69
2023/10/26 06:26:46;;;;;;;20.20;12.70;;;;;;;11.54;81.88;99667.94;7395337;19;20026;-69
2023/10/26 06:29:14;;;;;;;16.45;11.85;;;;;;;11.61;81.75;99680.47;7392624;19;20043;-69
2023/10/26 06:31:42;;;;;;;18.80;12.85;;;;;;;11.66;81.39;99680.03;7394063;19;20409;-69
2023/10/26 06:34:09;;;;;;;18.48;12.77;;;;;;;11.62;81.40;99689.25;7391039;19;20389;-69
2023/10/26 06:36:37;;;;;;;16.48;11.90;;;;;;;11.64;81.78;99687.31;7394877;19;20018;-69
2023/10/26 06:39:04;;;;;;;18.08;12.90;;;;;;;11.71;81.19;99694.53;7392892;19;20025;-69
2023/10/26 06:41:32;;;;;;;17.25;12.13;;;;;;;11.65;81.38;99687.16;7391735;19;20026;-69
2023/10/26 06:44:00;;;;;;;18.25;13.25;;;;;;;11.64;81.49;99679.34;7396893;19;20015;-69
2023/10/26 06:46:28;;;;;;;18.20;13.07;;;;;;;11.60;81.68;99685.91;7394394;19;20025;-68
2023/10/26 06:48:55;;;;;;;19.02;13.55;;;;;;;11.57;81.83;99684.41;7393408;19;20021;-69
2023/10/26 06:51:26;;;;;;;19.00;13.40;;;;;;;11.59;81.79;99692.19;7390538;19;20043;-69
2023/10/26 06:53:53;;;;;;;17.52;13.10;;;;;;;11.62;81.64;99678.66;7393547;19;20484;-69
2023/10/26 06:56:21;;;;;;;19.10;13.65;;;;;;;11.61;81.73;99677.00;7394059;19;20022;-69
2023/10/26 06:58:49;;;;;;;17.83;13.18;;;;;;;11.61;81.57;99675.16;7391365;19;20022;-69
2023/10/26 07:01:16;;;;;;;19.13;13.30;;;;;;;11.56;81.58;99672.13;7393055;19;20039;-68
2023/10/26 07:03:50;;;;;;;19.60;13.20;;;;;;;11.61;81.75;99675.16;7393693;19;20070;-68
2023/10/26 07:06:18;;;;;;;19.25;13.85;;;;;;;11.61;81.57;99683.13;7393707;19;20022;-68
2023/10/26 07:08:47;;;;;;;19.70;13.40;;;;;;;11.62;81.52;99681.31;7392664;19;20023;-68
2023/10/26 07:11:22;;;;;;;20.48;13.95;;;;;;;11.65;81.26;99686.31;7391765;19;20015;-68
2023/10/26 07:13:49;;;;;;;17.75;13.60;;;;;;;11.68;81.44;99686.03;7391443;19;20100;-68
2023/10/26 07:16:17;;;;;;;19.38;13.82;;;;;;;11.73;81.41;99685.59;7390627;19;20028;-68
2023/10/26 07:18:45;;;;;;;19.85;13.80;;;;;;;11.77;81.29;99687.78;7392315;19;20019;-68
2023/10/26 07:21:12;;;;;;;19.65;14.65;;;;;;;11.80;81.27;99691.97;7392263;19;20014;-68
2023/10/26 07:23:41;;;;;;;17.15;13.25;;;;;;;11.81;81.45;99688.34;7393234;19;20028;-68
2023/10/26 07:26:09;;;;;;;19.27;13.52;;;;;;;11.85;81.11;99692.41;7392805;19;20693;-68
2023/10/26 07:28:37;;;;;;;19.80;13.60;;;;;;;11.91;81.23;99687.34;7392738;19;20018;-68
2023/10/26 07:31:04;;;;;;;20.52;14.48;;;;;;;11.96;80.96;99692.19;7391801;19;20511;-68
2023/10/26 07:33:32;;;;;;;18.15;13.60;;;;;;;12.01;80.64;99695.22;7392358;19;20026;-69
2023/10/26 07:36:00;;;;;;;21.17;14.93;;;;;;;12.00;81.00;99696.22;7392714;19;20015;-68
2023/10/26 07:38:28;;;;;;;19.58;14.07;;;;;;;12.05;81.23;99703.72;7390197;19;20707;-68
2023/10/26 07:41:05;;;;;;;20.52;14.43;;;;;;;12.05;81.14;99695.78;7390155;19;20390;-68
2023/10/26 07:43:37;;;;;;;21.35;15.10;;;;;;;12.07;81.01;99699.97;7392387;19;20019;-68
2023/10/26 07:46:05;;;;;;;18.80;14.50;;;;;;;12.06;80.91;99700.13;7390721;19;20021;-67
2023/10/26 07:48:35;;;;;;;22.33;15.00;;;;;;;12.08;80.69;99701.63;7392048;19;20018;-68
2023/10/26 07:51:03;;;;;;;21.77;15.40;;;;;;;12.08;80.72;99700.78;7391254;19;20487;-68
2023/10/26 07:53:31;;;;;;;21.20;15.30;;;;;;;12.05;80.66;99703.72;7392446;19;20086;-68
2023/10/26 07:55:58;;;;;;;18.15;14.45;;;;;;;12.06;80.81;99703.59;7392305;19;20516;-68
2023/10/26 07:58:28;;;;;;;21.92;15.93;;;;;;;12.03;80.81;99703.06;7391286;19;20018;-68
2023/10/26 08:00:56;;;;;;;19.05;14.88;;;;;;;12.05;80.88;99693.13;7390701;19;20341;-68
2023/10/26 08:03:24;;;;;;;20.83;15.60;;;;;;;12.10;81.06;99696.19;7390714;19;20027;-68
2023/10/26 08:05:59;;;;;;;22.33;16.02;;;;;;;12.10;81.11;99699.66;7392446;19;20015;-69
2023/10/26 08:08:29;;;;;;;20.60;15.93;;;;;;;12.08;81.08;99698.97;7391461;19;20038;-69
2023/10/26 08:11:07;;;;;;;20.88;15.98;;;;;;;12.18;80.93;99706.88;7390182;19;20490;-69
2023/10/26 08:13:34;;;;;;;21.33;15.63;;;;;;;12.16;80.76;99706.19;7390586;19;20011;-68
2023/10/26 08:16:02;;;;;;;21.48;16.35;;;;;;;12.14;81.09;99701.03;7391639;19;20015;-68
2023/10/26 08:18:50;;;;;;;22.05;16.70;;;;;;;12.10;81.03;99704.97;7389145;19;20014;-68
2023/10/26 08:21:18;;;;;;;21.50;16.33;;;;;;;12.16;81.05;99709.66;7390589;19;20026;-68
2023/10/26 08:23:46;;;;;;;22.60;17.08;;;;;;;12.18;81.06;99710.38;7391179;19;20044;-68
2023/10/26 08:26:15;;;;;;;21.50;15.85;;;;;;;12.20;80.99;99716.34;7391242;19;20026;-68
2023/10/26 08:28:42;;;;;;;22.48;17.23;;;;;;;12.20;81.09;99711.03;7388533;19;20026;-68
2023/10/26 08:31:10;;;;;;;22.75;17.33;;;;;;;12.22;80.83;99708.25;7390663;19;20055;-68
2023/10/26 08:33:37;;;;;;;24.27;16.50;;;;;;;12.22;80.90;99710.06;7388850;19;20021;-68
2023/10/26 08:36:06;;;;;;;24.05;17.77;;;;;;;12.22;80.93;99718.03;7391344;19;20014;-68
2023/10/26 08:38:33;;;;;;;28.52;19.08;;;;;;;12.26;80.88;99716.75;7385562;19;20031;-68
2023/10/26 08:41:01;;;;;;;24.58;18.35;;;;;;;12.31;80.91;99725.09;7391759;19;20018;-68
2023/10/26 08:43:29;;;;;;;22.33;17.27;;;;;;;12.36;80.47;99720.16;7390931;19;20037;-68
2023/10/26 08:45:59;;;;;;;23.75;18.02;;;;;;;12.38;81.01;99715.56;7391591;19;20039;-68
2023/10/26 08:48:29;;;;;;;23.13;17.65;;;;;;;12.37;80.37;99714.72;7392489;19;20018;-68
2023/10/26 08:50:57;;;;;;;27.17;18.38;;;;;;;12.30;80.86;99720.78;7391031;19;20018;-68
2023/10/26 08:53:25;;;;;;;25.30;18.13;;;;;;;12.27;80.95;99724.56;7391059;19;20018;-68
2023/10/26 08:55:54;;;;;;;23.83;17.10;;;;;;;12.27;80.86;99716.59;7391980;19;20019;-68
2023/10/26 08:58:22;;;;;;;22.65;17.77;;;;;;;12.26;80.90;99720.25;7394884;19;20094;-68
2023/10/26 09:00:51;;;;;;;24.83;17.95;;;;;;;12.31;80.91;99725.09;7397416;19;20014;-68
2023/10/26 09:03:21;;;;;;;21.73;17.38;;;;;;;12.32;80.77;99726.75;7397844;19;20023;-68
2023/10/26 09:05:54;;;;;;;22.92;17.50;;;;;;;12.33;80.93;99725.78;7397704;19;20048;-68
2023/10/26 09:08:23;;;;;;;23.00;17.80;;;;;;;12.30;80.67;99720.78;7397012;19;20018;-68
2023/10/26 09:10:51;;;;;;;23.73;17.00;;;;;;;12.29;80.85;99727.91;7396656;19;20055;-68
2023/10/26 09:13:27;;;;;;;22.50;16.88;;;;;;;12.32;80.81;99732.91;7395776;19;20018;-68
2023/10/26 09:15:58;;;;;;;23.20;17.05;;;;;;;12.26;81.10;99730.84;7397658;19;20048;-68
2023/10/26 09:18:26;;;;;;;26.08;17.60;;;;;;;12.33;80.80;99733.75;7395059;19;20078;-68
2023/10/26 09:21:03;;;;;;;24.48;17.15;;;;;;;12.41;80.66;99737.31;7396803;19;20019;-69
2023/10/26 09:23:32;;;;;;;24.38;17.85;;;;;;;12.35;80.73;99726.47;7396509;19;20031;-68
2023/10/26 09:26:04;;;;;;;22.98;17.00;;;;;;;12.36;80.67;99736.94;7397315;19;20028;-68
2023/10/26 09:28:55;;;;;;;21.35;16.55;;;;;;;12.47;80.40;99727.91;7396430;19;20018;-68
2023/10/26 09:31:24;;;;;;;23.70;17.30;;;;;;;12.41;80.42;99734.66;7394202;19;20370;-69
2023/10/26 09:33:51;;;;;;;23.13;16.50;;;;;;;12.48;79.99;99734.06;7395162;19;20502;-69
2023/10/26 09:36:20;;;;;;;22.35;17.27;;;;;;;12.49;80.35;99736.56;7394782;19;20023;-69
2023/10/26 09:38:48;;;;;;;24.17;17.90;;;;;;;12.49;80.55;99738.41;7395909;19;20018;-69
2023/10/26 09:41:18;;;;;;;23.65;17.00;;;;;;;12.55;80.13;99738.59;7395369;19;20018;-69
2023/10/26 09:43:47;;;;;;;22.20;16.80;;;;;;;12.55;79.97;99730.66;7395112;19;20019;-67
2023/10/26 09:46:17;;;;;;;23.63;17.40;;;;;;;12.62;79.99;99730.88;7396940;19;20036;-69
2023/10/26 09:48:46;;;;;;;22.42;16.48;;;;;;;12.71;79.98;99739.78;7394813;19;20082;-70
2023/10/26 09:51:15;;;;;;;22.90;16.25;;;;;;;12.77;79.48;99741.81;7395636;19;20023;-70
2023/10/26 09:53:44;;;;;;;21.98;16.85;;;;;;;12.75;79.57;99741.16;7394518;19;20128;-70
2023/10/26 09:56:27;;;;;;;21.58;16.63;;;;;;;12.78;79.65;99740.81;7396293;19;20026;-70
2023/10/26 09:58:54;;;;;;;21.13;15.82;;;;;;;12.76;79.63;99751.59;7394755;19;20015;-70
2023/10/26 10:01:43;;;;;;;20.25;15.60;;;;;;;12.92;78.91;99750.91;7395151;19;20022;-70
2023/10/26 10:04:11;;;;;;;21.42;15.93;;;;;;;12.81;79.40;99748.50;7396206;19;20011;-68
2023/10/26 10:06:52;;;;;;;19.52;15.00;;;;;;;12.91;79.17;99751.91;7396070;19;20480;-68
2023/10/26 10:09:26;;;;;;;20.02;15.85;;;;;;;12.83;79.29;99750.03;7389140;19;20018;-70
2023/10/26 10:12:15;;;;;;;19.23;15.32;;;;;;;12.87;79.29;99755.88;7395388;19;20094;-69
2023/10/26 10:14:51;;;;;;;21.65;16.40;;;;;;;12.77;79.40;99750.63;7395405;19;20014;-69
2023/10/26 10:17:22;;;;;;;18.63;14.02;;;;;;;12.75;79.46;99757.91;7396242;19;20019;-69
2023/10/26 10:20:18;;;;;;;19.27;15.23;;;;;;;12.87;78.94;99743.41;7392645;19;20022;-70
2023/10/26 10:22:52;;;;;;;19.52;14.63;;;;;;;12.86;79.08;99749.72;7394829;19;20022;-69
2023/10/26 10:25:23;;;;;;;18.70;14.02;;;;;;;12.86;78.76;99748.88;7395609;19;20048;-69
2023/10/26 10:27:50;;;;;;;19.75;14.70;;;;;;;12.86;78.75;99747.06;7395238;19;20022;-69
2023/10/26 10:30:20;;;;;;;19.90;14.38;;;;;;;12.91;78.34;99742.13;7393587;19;20019;-69
2023/10/26 10:32:50;;;;;;;19.10;14.15;;;;;;;12.93;78.50;99749.91;7393957;19;20018;-69
2023/10/26 10:35:21;;;;;;;20.40;13.75;;;;;;;12.97;78.82;99742.47;7393539;19;20043;-69
2023/10/26 10:38:10;;;;;;;18.92;14.02;;;;;;;13.01;78.12;99741.19;7394371;19;20022;-69
2023/10/26 10:40:40;;;;;;;18.67;14.38;;;;;;;12.90;78.37;99740.47;7393091;19;20034;-69
2023/10/26 10:43:09;;;;;;;19.70;14.20;;;;;;;12.95;77.88;99737.34;7388931;19;20088;-69
2023/10/26 10:45:37;;;;;;;19.65;14.85;;;;;;;12.92;77.96;99733.16;7394612;19;20369;-69
2023/10/26 10:48:05;;;;;;;19.05;14.02;;;;;;;12.87;78.06;99737.25;7393943;19;20033;-68
2023/10/26 10:50:32;;;;;;;19.55;13.50;;;;;;;12.88;78.21;99742.41;7392889;19;20790;-69
2023/10/26 10:53:00;;;;;;;18.55;14.02;;;;;;;12.90;78.14;99747.59;7394024;19;20100;-68
2023/10/26 10:55:29;;;;;;;18.67;13.95;;;;;;;12.89;78.13;99737.94;7394624;19;20386;-68
2023/10/26 10:57:58;;;;;;;18.08;13.57;;;;;;;12.85;77.96;99739.22;7394207;19;20432;-69
2023/10/26 11:00:40;;;;;;;19.17;13.38;;;;;;;12.90;78.00;99751.09;7391592;19;20357;-69
2023/10/26 11:03:08;;;;;;;17.63;13.82;;;;;;;12.86;78.48;99739.09;7394588;19;20491;-69
2023/10/26 11:05:38;;;;;;;17.98;13.82;;;;;;;12.98;78.37;99742.34;7393716;19;20025;-68
2023/10/26 11:08:07;;;;;;;18.42;13.73;;;;;;;13.07;78.13;99729.94;7393425;19;20039;-69
2023/10/26 11:10:35;;;;;;;19.58;14.05;;;;;;;13.15;77.79;99733.50;7391921;19;20043;-70
2023/10/26 11:13:03;;;;;;;19.73;14.30;;;;;;;13.22;77.66;99736.38;7391278;19;20014;-70
2023/10/26 11:15:36;;;;;;;17.83;13.77;;;;;;;13.30;77.51;99740.94;7393717;19;20355;-69
2023/10/26 11:18:07;;;;;;;18.88;13.27;;;;;;;13.32;77.31;99733.66;7392941;19;20052;-69
2023/10/26 11:20:41;;;;;;;19.02;13.23;;;;;;;13.38;76.96;99739.16;7391660;19;20018;-68
2023/10/26 11:23:10;;;;;;;19.25;14.40;;;;;;;13.31;76.70;99742.59;7393018;19;20039;-69
2023/10/26 11:25:39;;;;;;;19.13;13.18;;;;;;;13.33;76.96;99738.81;7391963;19;20057;-69